sensor_id;sensor_type;location;lat;lon;timestamp;P1;durP1;ratioP1;P2;durP2;ratioP2
6376;SDS011;3221;48.858;10.128;2024-01-11T00:02:04;44.33;;;29.27;;
6376;SDS011;3221;48.858;10.128;2024-01-11T00:04:32;48.43;;;31.23;;
6376;SDS011;3221;48.858;10.128;2024-01-11T00:06:59;47.77;;;31.33;;
6376;SDS011;3221;48.858;10.128;2024-01-11T00:09:26;48.70;;;31.30;;
6376;SDS011;3221;48.858;10.128;2024-01-11T00:11:53;46.10;;;31.60;;
6376;SDS011;3221;48.858;10.128;2024-01-11T00:14:20;45.07;;;30.07;;
6376;SDS011;3221;48.858;10.128;2024-01-11T00:16:47;47.70;;;32.10;;
6376;SDS011;3221;48.858;10.128;2024-01-11T00:19:14;45.90;;;30.27;;
6376;SDS011;3221;48.858;10.128;2024-01-11T00:21:41;44.07;;;29.63;;
6376;SDS011;3221;48.858;10.128;2024-01-11T00:24:08;46.10;;;31.13;;
6376;SDS011;3221;48.858;10.128;2024-01-11T00:26:35;50.57;;;30.77;;
6376;SDS011;3221;48.858;10.128;2024-01-11T00:29:03;46.63;;;30.17;;
6376;SDS011;3221;48.858;10.128;2024-01-11T00:31:31;47.80;;;30.87;;
6376;SDS011;3221;48.858;10.128;2024-01-11T00:33:58;49.50;;;31.27;;
6376;SDS011;3221;48.858;10.128;2024-01-11T00:36:25;48.53;;;31.20;;
6376;SDS011;3221;48.858;10.128;2024-01-11T00:38:52;43.60;;;29.57;;
6376;SDS011;3221;48.858;10.128;2024-01-11T00:41:19;48.40;;;31.90;;
6376;SDS011;3221;48.858;10.128;2024-01-11T00:43:47;48.23;;;31.73;;
6376;SDS011;3221;48.858;10.128;2024-01-11T00:46:14;45.83;;;30.37;;
6376;SDS011;3221;48.858;10.128;2024-01-11T00:48:41;47.07;;;31.10;;
6376;SDS011;3221;48.858;10.128;2024-01-11T00:51:08;46.87;;;31.53;;
6376;SDS011;3221;48.858;10.128;2024-01-11T00:53:35;48.87;;;32.57;;
6376;SDS011;3221;48.858;10.128;2024-01-11T00:56:02;45.80;;;31.20;;
6376;SDS011;3221;48.858;10.128;2024-01-11T00:58:29;47.10;;;31.40;;
6376;SDS011;3221;48.858;10.128;2024-01-11T01:00:56;48.83;;;32.60;;
6376;SDS011;3221;48.858;10.128;2024-01-11T01:03:23;46.87;;;31.70;;
6376;SDS011;3221;48.858;10.128;2024-01-11T01:05:50;46.30;;;31.33;;
6376;SDS011;3221;48.858;10.128;2024-01-11T01:08:17;46.60;;;31.50;;
6376;SDS011;3221;48.858;10.128;2024-01-11T01:10:44;46.97;;;31.57;;
6376;SDS011;3221;48.858;10.128;2024-01-11T01:13:11;47.30;;;32.10;;
6376;SDS011;3221;48.858;10.128;2024-01-11T01:15:38;47.00;;;31.00;;
6376;SDS011;3221;48.858;10.128;2024-01-11T01:18:06;45.67;;;30.67;;
6376;SDS011;3221;48.858;10.128;2024-01-11T01:20:33;50.53;;;31.63;;
6376;SDS011;3221;48.858;10.128;2024-01-11T01:23:00;46.80;;;31.67;;
6376;SDS011;3221;48.858;10.128;2024-01-11T01:25:27;53.23;;;33.57;;
6376;SDS011;3221;48.858;10.128;2024-01-11T01:27:54;51.33;;;33.97;;
6376;SDS011;3221;48.858;10.128;2024-01-11T01:30:22;47.50;;;33.17;;
6376;SDS011;3221;48.858;10.128;2024-01-11T01:32:49;50.53;;;34.27;;
6376;SDS011;3221;48.858;10.128;2024-01-11T01:35:17;49.53;;;32.03;;
6376;SDS011;3221;48.858;10.128;2024-01-11T01:37:44;50.20;;;33.37;;
6376;SDS011;3221;48.858;10.128;2024-01-11T01:40:11;51.13;;;34.60;;
6376;SDS011;3221;48.858;10.128;2024-01-11T01:42:47;45.60;;;31.90;;
6376;SDS011;3221;48.858;10.128;2024-01-11T01:45:15;46.23;;;31.97;;
6376;SDS011;3221;48.858;10.128;2024-01-11T01:47:42;47.80;;;32.07;;
6376;SDS011;3221;48.858;10.128;2024-01-11T01:50:10;46.87;;;32.40;;
6376;SDS011;3221;48.858;10.128;2024-01-11T01:52:39;46.20;;;32.13;;
6376;SDS011;3221;48.858;10.128;2024-01-11T01:55:08;47.00;;;31.57;;
6376;SDS011;3221;48.858;10.128;2024-01-11T01:57:36;46.33;;;31.40;;
6376;SDS011;3221;48.858;10.128;2024-01-11T02:00:06;49.03;;;32.90;;
6376;SDS011;3221;48.858;10.128;2024-01-11T02:02:38;46.57;;;31.63;;
6376;SDS011;3221;48.858;10.128;2024-01-11T02:05:08;44.67;;;31.83;;
6376;SDS011;3221;48.858;10.128;2024-01-11T02:07:36;47.80;;;31.70;;
6376;SDS011;3221;48.858;10.128;2024-01-11T02:10:03;47.13;;;31.50;;
6376;SDS011;3221;48.858;10.128;2024-01-11T02:12:31;48.30;;;32.53;;
6376;SDS011;3221;48.858;10.128;2024-01-11T02:14:59;44.67;;;30.47;;
6376;SDS011;3221;48.858;10.128;2024-01-11T02:17:27;45.03;;;30.80;;
6376;SDS011;3221;48.858;10.128;2024-01-11T02:19:54;48.53;;;32.97;;
6376;SDS011;3221;48.858;10.128;2024-01-11T02:22:22;45.80;;;32.03;;
6376;SDS011;3221;48.858;10.128;2024-01-11T02:24:54;47.80;;;31.60;;
6376;SDS011;3221;48.858;10.128;2024-01-11T02:27:20;45.90;;;30.60;;
6376;SDS011;3221;48.858;10.128;2024-01-11T02:29:47;45.70;;;30.93;;
6376;SDS011;3221;48.858;10.128;2024-01-11T02:32:14;48.33;;;31.60;;
6376;SDS011;3221;48.858;10.128;2024-01-11T02:34:41;45.40;;;32.13;;
6376;SDS011;3221;48.858;10.128;2024-01-11T02:37:09;45.10;;;31.23;;
6376;SDS011;3221;48.858;10.128;2024-01-11T02:39:36;44.33;;;30.40;;
6376;SDS011;3221;48.858;10.128;2024-01-11T02:42:03;45.97;;;31.10;;
6376;SDS011;3221;48.858;10.128;2024-01-11T02:44:30;45.87;;;29.67;;
6376;SDS011;3221;48.858;10.128;2024-01-11T02:46:58;46.17;;;31.50;;
6376;SDS011;3221;48.858;10.128;2024-01-11T02:49:24;47.80;;;33.23;;
6376;SDS011;3221;48.858;10.128;2024-01-11T02:51:51;45.23;;;31.77;;
6376;SDS011;3221;48.858;10.128;2024-01-11T02:54:19;48.43;;;32.80;;
6376;SDS011;3221;48.858;10.128;2024-01-11T02:56:45;46.67;;;32.03;;
6376;SDS011;3221;48.858;10.128;2024-01-11T02:59:12;45.07;;;30.33;;
6376;SDS011;3221;48.858;10.128;2024-01-11T03:01:39;43.90;;;30.37;;
6376;SDS011;3221;48.858;10.128;2024-01-11T03:04:06;43.00;;;29.67;;
6376;SDS011;3221;48.858;10.128;2024-01-11T03:06:33;46.90;;;31.20;;
6376;SDS011;3221;48.858;10.128;2024-01-11T03:09:00;45.57;;;30.87;;
6376;SDS011;3221;48.858;10.128;2024-01-11T03:11:27;43.83;;;30.10;;
6376;SDS011;3221;48.858;10.128;2024-01-11T03:13:54;44.63;;;29.83;;
6376;SDS011;3221;48.858;10.128;2024-01-11T03:16:22;45.70;;;31.00;;
6376;SDS011;3221;48.858;10.128;2024-01-11T03:18:49;44.10;;;30.30;;
6376;SDS011;3221;48.858;10.128;2024-01-11T03:21:16;45.97;;;29.93;;
6376;SDS011;3221;48.858;10.128;2024-01-11T03:23:43;41.07;;;28.80;;
6376;SDS011;3221;48.858;10.128;2024-01-11T03:26:13;41.33;;;28.73;;
6376;SDS011;3221;48.858;10.128;2024-01-11T03:28:43;42.43;;;28.93;;
6376;SDS011;3221;48.858;10.128;2024-01-11T03:31:10;44.17;;;30.10;;
6376;SDS011;3221;48.858;10.128;2024-01-11T03:33:37;44.73;;;29.50;;
6376;SDS011;3221;48.858;10.128;2024-01-11T03:36:10;44.10;;;28.67;;
6376;SDS011;3221;48.858;10.128;2024-01-11T03:38:38;41.83;;;29.63;;
6376;SDS011;3221;48.858;10.128;2024-01-11T03:41:08;42.80;;;29.27;;
6376;SDS011;3221;48.858;10.128;2024-01-11T03:43:38;41.27;;;27.87;;
6376;SDS011;3221;48.858;10.128;2024-01-11T03:46:06;45.77;;;29.70;;
6376;SDS011;3221;48.858;10.128;2024-01-11T03:48:32;45.73;;;30.17;;
6376;SDS011;3221;48.858;10.128;2024-01-11T03:51:02;50.90;;;30.97;;
6376;SDS011;3221;48.858;10.128;2024-01-11T03:53:29;42.30;;;28.70;;
6376;SDS011;3221;48.858;10.128;2024-01-11T03:55:56;44.10;;;29.47;;
6376;SDS011;3221;48.858;10.128;2024-01-11T03:58:23;43.60;;;29.03;;
6376;SDS011;3221;48.858;10.128;2024-01-11T04:00:50;44.97;;;30.10;;
6376;SDS011;3221;48.858;10.128;2024-01-11T04:03:16;44.40;;;30.43;;
6376;SDS011;3221;48.858;10.128;2024-01-11T04:05:44;46.80;;;31.13;;
6376;SDS011;3221;48.858;10.128;2024-01-11T04:08:11;45.90;;;32.03;;
6376;SDS011;3221;48.858;10.128;2024-01-11T04:10:37;45.73;;;29.83;;
6376;SDS011;3221;48.858;10.128;2024-01-11T04:13:06;45.07;;;29.80;;
6376;SDS011;3221;48.858;10.128;2024-01-11T04:15:33;47.47;;;30.83;;
6376;SDS011;3221;48.858;10.128;2024-01-11T04:18:00;45.30;;;29.37;;
6376;SDS011;3221;48.858;10.128;2024-01-11T04:20:27;46.57;;;32.53;;
6376;SDS011;3221;48.858;10.128;2024-01-11T04:22:55;44.17;;;29.97;;
6376;SDS011;3221;48.858;10.128;2024-01-11T04:25:22;44.47;;;30.03;;
6376;SDS011;3221;48.858;10.128;2024-01-11T04:27:48;43.10;;;29.83;;
6376;SDS011;3221;48.858;10.128;2024-01-11T04:30:15;44.67;;;29.10;;
6376;SDS011;3221;48.858;10.128;2024-01-11T04:32:42;45.70;;;30.13;;
6376;SDS011;3221;48.858;10.128;2024-01-11T04:35:09;46.03;;;31.73;;
6376;SDS011;3221;48.858;10.128;2024-01-11T04:37:36;43.33;;;30.27;;
6376;SDS011;3221;48.858;10.128;2024-01-11T04:40:04;44.10;;;30.03;;
6376;SDS011;3221;48.858;10.128;2024-01-11T04:42:33;44.27;;;30.00;;
6376;SDS011;3221;48.858;10.128;2024-01-11T04:45:00;45.13;;;29.47;;
6376;SDS011;3221;48.858;10.128;2024-01-11T04:47:27;46.30;;;30.17;;
6376;SDS011;3221;48.858;10.128;2024-01-11T04:49:54;48.63;;;31.07;;
6376;SDS011;3221;48.858;10.128;2024-01-11T04:52:21;49.57;;;31.53;;
6376;SDS011;3221;48.858;10.128;2024-01-11T04:54:49;45.57;;;31.27;;
6376;SDS011;3221;48.858;10.128;2024-01-11T04:57:15;49.20;;;32.60;;
6376;SDS011;3221;48.858;10.128;2024-01-11T04:59:43;50.30;;;32.20;;
6376;SDS011;3221;48.858;10.128;2024-01-11T05:02:10;52.03;;;32.70;;
6376;SDS011;3221;48.858;10.128;2024-01-11T05:04:37;48.43;;;31.63;;
6376;SDS011;3221;48.858;10.128;2024-01-11T05:07:04;51.60;;;33.83;;
6376;SDS011;3221;48.858;10.128;2024-01-11T05:09:31;54.43;;;35.00;;
6376;SDS011;3221;48.858;10.128;2024-01-11T05:11:58;55.13;;;33.93;;
6376;SDS011;3221;48.858;10.128;2024-01-11T05:14:27;54.13;;;34.20;;
6376;SDS011;3221;48.858;10.128;2024-01-11T05:16:54;50.87;;;32.60;;
6376;SDS011;3221;48.858;10.128;2024-01-11T05:19:21;52.40;;;33.13;;
6376;SDS011;3221;48.858;10.128;2024-01-11T05:21:48;56.17;;;35.17;;
6376;SDS011;3221;48.858;10.128;2024-01-11T05:24:15;51.87;;;34.07;;
6376;SDS011;3221;48.858;10.128;2024-01-11T05:26:42;53.03;;;34.03;;
6376;SDS011;3221;48.858;10.128;2024-01-11T05:29:09;52.37;;;33.90;;
6376;SDS011;3221;48.858;10.128;2024-01-11T05:31:36;51.47;;;33.10;;
6376;SDS011;3221;48.858;10.128;2024-01-11T05:34:04;54.63;;;34.93;;
6376;SDS011;3221;48.858;10.128;2024-01-11T05:36:31;54.10;;;34.10;;
6376;SDS011;3221;48.858;10.128;2024-01-11T05:38:58;53.87;;;33.93;;
6376;SDS011;3221;48.858;10.128;2024-01-11T05:41:25;53.67;;;35.63;;
6376;SDS011;3221;48.858;10.128;2024-01-11T05:43:52;54.53;;;33.67;;
6376;SDS011;3221;48.858;10.128;2024-01-11T05:46:19;52.53;;;35.07;;
6376;SDS011;3221;48.858;10.128;2024-01-11T05:48:46;49.73;;;31.77;;
6376;SDS011;3221;48.858;10.128;2024-01-11T05:51:13;56.67;;;33.67;;
6376;SDS011;3221;48.858;10.128;2024-01-11T05:53:40;52.07;;;34.77;;
6376;SDS011;3221;48.858;10.128;2024-01-11T05:56:08;55.33;;;36.50;;
6376;SDS011;3221;48.858;10.128;2024-01-11T05:58:36;57.80;;;37.27;;
6376;SDS011;3221;48.858;10.128;2024-01-11T06:01:04;62.03;;;38.37;;
6376;SDS011;3221;48.858;10.128;2024-01-11T06:03:31;70.27;;;41.77;;
6376;SDS011;3221;48.858;10.128;2024-01-11T06:06:02;59.63;;;37.87;;
6376;SDS011;3221;48.858;10.128;2024-01-11T06:08:30;59.53;;;36.27;;
6376;SDS011;3221;48.858;10.128;2024-01-11T06:10:57;60.53;;;38.87;;
6376;SDS011;3221;48.858;10.128;2024-01-11T06:13:24;55.70;;;36.77;;
6376;SDS011;3221;48.858;10.128;2024-01-11T06:15:52;59.30;;;38.73;;
6376;SDS011;3221;48.858;10.128;2024-01-11T06:18:19;57.90;;;36.33;;
6376;SDS011;3221;48.858;10.128;2024-01-11T06:20:46;54.47;;;36.40;;
6376;SDS011;3221;48.858;10.128;2024-01-11T06:23:13;56.20;;;36.67;;
6376;SDS011;3221;48.858;10.128;2024-01-11T06:25:40;53.07;;;35.10;;
6376;SDS011;3221;48.858;10.128;2024-01-11T06:28:07;50.27;;;34.27;;
6376;SDS011;3221;48.858;10.128;2024-01-11T06:30:36;53.27;;;33.70;;
6376;SDS011;3221;48.858;10.128;2024-01-11T06:33:03;51.67;;;33.97;;
6376;SDS011;3221;48.858;10.128;2024-01-11T06:35:30;50.53;;;32.77;;
6376;SDS011;3221;48.858;10.128;2024-01-11T06:37:57;49.60;;;33.23;;
6376;SDS011;3221;48.858;10.128;2024-01-11T06:40:24;48.13;;;32.43;;
6376;SDS011;3221;48.858;10.128;2024-01-11T06:42:51;49.00;;;31.87;;
6376;SDS011;3221;48.858;10.128;2024-01-11T06:45:18;50.50;;;33.30;;
6376;SDS011;3221;48.858;10.128;2024-01-11T06:47:45;51.20;;;33.30;;
6376;SDS011;3221;48.858;10.128;2024-01-11T06:50:13;53.73;;;33.43;;
6376;SDS011;3221;48.858;10.128;2024-01-11T06:52:40;47.60;;;32.33;;
6376;SDS011;3221;48.858;10.128;2024-01-11T06:55:07;51.50;;;32.97;;
6376;SDS011;3221;48.858;10.128;2024-01-11T06:57:34;52.33;;;35.33;;
6376;SDS011;3221;48.858;10.128;2024-01-11T07:00:02;51.57;;;33.27;;
6376;SDS011;3221;48.858;10.128;2024-01-11T07:02:29;50.10;;;33.93;;
6376;SDS011;3221;48.858;10.128;2024-01-11T07:04:56;51.53;;;34.37;;
6376;SDS011;3221;48.858;10.128;2024-01-11T07:07:23;56.03;;;37.23;;
6376;SDS011;3221;48.858;10.128;2024-01-11T07:09:50;58.37;;;38.70;;
6376;SDS011;3221;48.858;10.128;2024-01-11T07:12:17;59.80;;;38.47;;
6376;SDS011;3221;48.858;10.128;2024-01-11T07:14:43;51.40;;;34.80;;
6376;SDS011;3221;48.858;10.128;2024-01-11T07:17:10;56.80;;;34.93;;
6376;SDS011;3221;48.858;10.128;2024-01-11T07:19:37;53.90;;;35.80;;
6376;SDS011;3221;48.858;10.128;2024-01-11T07:22:04;57.47;;;37.03;;
6376;SDS011;3221;48.858;10.128;2024-01-11T07:24:31;51.77;;;34.43;;
6376;SDS011;3221;48.858;10.128;2024-01-11T07:27:04;51.23;;;34.40;;
6376;SDS011;3221;48.858;10.128;2024-01-11T07:29:32;46.53;;;31.73;;
6376;SDS011;3221;48.858;10.128;2024-01-11T07:32:02;49.83;;;34.30;;
6376;SDS011;3221;48.858;10.128;2024-01-11T07:34:30;53.13;;;33.97;;
6376;SDS011;3221;48.858;10.128;2024-01-11T07:36:58;46.97;;;31.10;;
6376;SDS011;3221;48.858;10.128;2024-01-11T07:39:25;52.93;;;33.30;;
6376;SDS011;3221;48.858;10.128;2024-01-11T07:41:52;51.67;;;33.97;;
6376;SDS011;3221;48.858;10.128;2024-01-11T07:44:19;47.57;;;31.80;;
6376;SDS011;3221;48.858;10.128;2024-01-11T07:46:47;53.27;;;32.77;;
6376;SDS011;3221;48.858;10.128;2024-01-11T07:49:20;52.03;;;33.67;;
6376;SDS011;3221;48.858;10.128;2024-01-11T07:51:47;49.50;;;32.50;;
6376;SDS011;3221;48.858;10.128;2024-01-11T07:54:15;48.70;;;32.73;;
6376;SDS011;3221;48.858;10.128;2024-01-11T07:56:41;48.60;;;31.77;;
6376;SDS011;3221;48.858;10.128;2024-01-11T07:59:09;50.13;;;33.17;;
6376;SDS011;3221;48.858;10.128;2024-01-11T08:01:41;52.20;;;32.73;;
6376;SDS011;3221;48.858;10.128;2024-01-11T08:04:08;53.60;;;33.67;;
6376;SDS011;3221;48.858;10.128;2024-01-11T08:06:35;51.30;;;33.53;;
6376;SDS011;3221;48.858;10.128;2024-01-11T08:09:02;52.87;;;35.30;;
6376;SDS011;3221;48.858;10.128;2024-01-11T08:11:31;59.20;;;36.77;;
6376;SDS011;3221;48.858;10.128;2024-01-11T08:14:02;55.33;;;34.00;;
6376;SDS011;3221;48.858;10.128;2024-01-11T08:16:32;56.13;;;36.20;;
6376;SDS011;3221;48.858;10.128;2024-01-11T08:18:59;60.23;;;37.93;;
6376;SDS011;3221;48.858;10.128;2024-01-11T08:21:27;60.47;;;37.77;;
6376;SDS011;3221;48.858;10.128;2024-01-11T08:23:54;58.50;;;37.37;;
6376;SDS011;3221;48.858;10.128;2024-01-11T08:26:28;62.60;;;39.70;;
6376;SDS011;3221;48.858;10.128;2024-01-11T08:28:56;61.17;;;39.27;;
6376;SDS011;3221;48.858;10.128;2024-01-11T08:31:23;60.93;;;40.43;;
6376;SDS011;3221;48.858;10.128;2024-01-11T08:33:50;60.67;;;38.60;;
6376;SDS011;3221;48.858;10.128;2024-01-11T08:36:17;56.90;;;38.40;;
6376;SDS011;3221;48.858;10.128;2024-01-11T08:38:44;56.87;;;37.27;;
6376;SDS011;3221;48.858;10.128;2024-01-11T08:41:12;55.73;;;36.50;;
6376;SDS011;3221;48.858;10.128;2024-01-11T08:43:39;54.97;;;37.40;;
6376;SDS011;3221;48.858;10.128;2024-01-11T08:46:06;61.40;;;37.90;;
6376;SDS011;3221;48.858;10.128;2024-01-11T08:48:33;56.83;;;38.37;;
6376;SDS011;3221;48.858;10.128;2024-01-11T08:51:00;61.23;;;41.37;;
6376;SDS011;3221;48.858;10.128;2024-01-11T08:53:27;61.40;;;39.07;;
6376;SDS011;3221;48.858;10.128;2024-01-11T08:55:54;60.43;;;40.03;;
6376;SDS011;3221;48.858;10.128;2024-01-11T08:58:21;59.47;;;38.80;;
6376;SDS011;3221;48.858;10.128;2024-01-11T09:00:48;56.57;;;37.13;;
6376;SDS011;3221;48.858;10.128;2024-01-11T09:03:15;60.23;;;38.57;;
6376;SDS011;3221;48.858;10.128;2024-01-11T09:05:44;60.37;;;38.40;;
6376;SDS011;3221;48.858;10.128;2024-01-11T09:08:11;60.47;;;37.13;;
6376;SDS011;3221;48.858;10.128;2024-01-11T09:10:38;57.93;;;36.87;;
6376;SDS011;3221;48.858;10.128;2024-01-11T09:13:05;54.13;;;35.33;;
6376;SDS011;3221;48.858;10.128;2024-01-11T09:15:32;58.23;;;35.87;;
6376;SDS011;3221;48.858;10.128;2024-01-11T09:17:59;57.07;;;37.70;;
6376;SDS011;3221;48.858;10.128;2024-01-11T09:20:27;61.87;;;37.90;;
6376;SDS011;3221;48.858;10.128;2024-01-11T09:22:54;57.10;;;36.30;;
6376;SDS011;3221;48.858;10.128;2024-01-11T09:25:21;60.73;;;36.83;;
6376;SDS011;3221;48.858;10.128;2024-01-11T09:27:48;58.87;;;37.70;;
6376;SDS011;3221;48.858;10.128;2024-01-11T09:30:16;54.27;;;36.80;;
6376;SDS011;3221;48.858;10.128;2024-01-11T09:32:43;55.90;;;37.37;;
6376;SDS011;3221;48.858;10.128;2024-01-11T09:35:10;58.40;;;38.00;;
6376;SDS011;3221;48.858;10.128;2024-01-11T09:37:41;60.70;;;38.33;;
6376;SDS011;3221;48.858;10.128;2024-01-11T09:40:10;57.30;;;36.67;;
6376;SDS011;3221;48.858;10.128;2024-01-11T09:42:37;55.17;;;36.50;;
6376;SDS011;3221;48.858;10.128;2024-01-11T09:45:14;55.97;;;36.83;;
6376;SDS011;3221;48.858;10.128;2024-01-11T09:47:45;56.00;;;36.43;;
6376;SDS011;3221;48.858;10.128;2024-01-11T09:50:13;57.30;;;37.30;;
6376;SDS011;3221;48.858;10.128;2024-01-11T09:52:47;59.90;;;37.57;;
6376;SDS011;3221;48.858;10.128;2024-01-11T09:55:18;59.77;;;37.63;;
6376;SDS011;3221;48.858;10.128;2024-01-11T09:57:46;58.80;;;36.70;;
6376;SDS011;3221;48.858;10.128;2024-01-11T10:00:22;58.50;;;37.43;;
6376;SDS011;3221;48.858;10.128;2024-01-11T10:02:50;55.67;;;37.13;;
6376;SDS011;3221;48.858;10.128;2024-01-11T10:05:18;58.63;;;37.73;;
6376;SDS011;3221;48.858;10.128;2024-01-11T10:07:45;59.73;;;38.40;;
6376;SDS011;3221;48.858;10.128;2024-01-11T10:10:12;58.70;;;36.70;;
6376;SDS011;3221;48.858;10.128;2024-01-11T10:12:42;57.47;;;36.93;;
6376;SDS011;3221;48.858;10.128;2024-01-11T10:15:09;60.17;;;38.57;;
6376;SDS011;3221;48.858;10.128;2024-01-11T10:17:40;59.03;;;38.10;;
6376;SDS011;3221;48.858;10.128;2024-01-11T10:20:12;58.50;;;37.20;;
6376;SDS011;3221;48.858;10.128;2024-01-11T10:22:50;59.13;;;37.53;;
6376;SDS011;3221;48.858;10.128;2024-01-11T10:25:18;61.90;;;37.20;;
6376;SDS011;3221;48.858;10.128;2024-01-11T10:27:46;57.83;;;36.23;;
6376;SDS011;3221;48.858;10.128;2024-01-11T10:30:13;54.77;;;35.50;;
6376;SDS011;3221;48.858;10.128;2024-01-11T10:32:44;59.77;;;36.80;;
6376;SDS011;3221;48.858;10.128;2024-01-11T10:35:13;52.57;;;34.87;;
6376;SDS011;3221;48.858;10.128;2024-01-11T10:37:40;55.27;;;35.10;;
6376;SDS011;3221;48.858;10.128;2024-01-11T10:40:09;51.90;;;33.93;;
6376;SDS011;3221;48.858;10.128;2024-01-11T10:42:43;55.07;;;34.87;;
6376;SDS011;3221;48.858;10.128;2024-01-11T10:45:15;52.23;;;33.70;;
6376;SDS011;3221;48.858;10.128;2024-01-11T10:47:50;50.37;;;33.40;;
6376;SDS011;3221;48.858;10.128;2024-01-11T10:50:20;54.80;;;36.50;;
6376;SDS011;3221;48.858;10.128;2024-01-11T10:53:02;60.07;;;39.43;;
6376;SDS011;3221;48.858;10.128;2024-01-11T10:55:44;57.87;;;38.07;;
6376;SDS011;3221;48.858;10.128;2024-01-11T10:58:12;60.77;;;38.70;;
6376;SDS011;3221;48.858;10.128;2024-01-11T11:00:41;58.70;;;35.70;;
6376;SDS011;3221;48.858;10.128;2024-01-11T11:03:08;60.80;;;38.33;;
6376;SDS011;3221;48.858;10.128;2024-01-11T11:05:37;60.17;;;38.33;;
6376;SDS011;3221;48.858;10.128;2024-01-11T11:08:05;61.87;;;38.83;;
6376;SDS011;3221;48.858;10.128;2024-01-11T11:10:34;59.80;;;36.73;;
6376;SDS011;3221;48.858;10.128;2024-01-11T11:13:02;55.57;;;36.43;;
6376;SDS011;3221;48.858;10.128;2024-01-11T11:15:31;55.00;;;35.10;;
6376;SDS011;3221;48.858;10.128;2024-01-11T11:17:59;56.67;;;36.47;;
6376;SDS011;3221;48.858;10.128;2024-01-11T11:20:27;55.33;;;36.07;;
6376;SDS011;3221;48.858;10.128;2024-01-11T11:23:04;59.83;;;37.40;;
6376;SDS011;3221;48.858;10.128;2024-01-11T11:25:32;56.23;;;35.90;;
6376;SDS011;3221;48.858;10.128;2024-01-11T11:27:59;54.13;;;35.93;;
6376;SDS011;3221;48.858;10.128;2024-01-11T11:30:31;54.27;;;36.37;;
6376;SDS011;3221;48.858;10.128;2024-01-11T11:33:18;56.47;;;35.67;;
6376;SDS011;3221;48.858;10.128;2024-01-11T11:35:48;55.03;;;34.97;;
6376;SDS011;3221;48.858;10.128;2024-01-11T11:38:20;55.00;;;35.70;;
6376;SDS011;3221;48.858;10.128;2024-01-11T11:40:50;54.70;;;34.97;;
6376;SDS011;3221;48.858;10.128;2024-01-11T11:43:20;58.10;;;36.67;;
6376;SDS011;3221;48.858;10.128;2024-01-11T11:45:48;58.83;;;37.17;;
6376;SDS011;3221;48.858;10.128;2024-01-11T11:53:38;58.67;;;37.47;;
6376;SDS011;3221;48.858;10.128;2024-01-11T11:56:07;58.13;;;38.37;;
6376;SDS011;3221;48.858;10.128;2024-01-11T11:58:44;59.33;;;38.13;;
6376;SDS011;3221;48.858;10.128;2024-01-11T12:01:12;55.23;;;36.30;;
6376;SDS011;3221;48.858;10.128;2024-01-11T12:03:46;55.93;;;36.83;;
6376;SDS011;3221;48.858;10.128;2024-01-11T12:06:16;54.20;;;35.73;;
6376;SDS011;3221;48.858;10.128;2024-01-11T12:08:46;58.27;;;37.40;;
6376;SDS011;3221;48.858;10.128;2024-01-11T12:11:14;59.80;;;37.83;;
6376;SDS011;3221;48.858;10.128;2024-01-11T12:13:44;58.43;;;37.90;;
6376;SDS011;3221;48.858;10.128;2024-01-11T12:16:12;60.13;;;38.93;;
6376;SDS011;3221;48.858;10.128;2024-01-11T12:18:39;58.97;;;37.63;;
6376;SDS011;3221;48.858;10.128;2024-01-11T12:21:07;57.50;;;37.93;;
6376;SDS011;3221;48.858;10.128;2024-01-11T12:23:36;58.07;;;35.63;;
6376;SDS011;3221;48.858;10.128;2024-01-11T12:26:08;53.23;;;35.77;;
6376;SDS011;3221;48.858;10.128;2024-01-11T12:28:40;59.33;;;37.63;;
6376;SDS011;3221;48.858;10.128;2024-01-11T12:31:08;57.97;;;36.73;;
6376;SDS011;3221;48.858;10.128;2024-01-11T12:33:36;55.87;;;35.63;;
6376;SDS011;3221;48.858;10.128;2024-01-11T12:36:06;55.97;;;36.47;;
6376;SDS011;3221;48.858;10.128;2024-01-11T12:38:34;53.23;;;34.97;;
6376;SDS011;3221;48.858;10.128;2024-01-11T12:41:02;56.97;;;36.40;;
6376;SDS011;3221;48.858;10.128;2024-01-11T12:43:30;54.77;;;35.63;;
6376;SDS011;3221;48.858;10.128;2024-01-11T12:45:57;53.47;;;34.73;;
6376;SDS011;3221;48.858;10.128;2024-01-11T12:48:24;52.27;;;34.40;;
6376;SDS011;3221;48.858;10.128;2024-01-11T12:50:52;53.20;;;35.20;;
6376;SDS011;3221;48.858;10.128;2024-01-11T12:53:39;70.10;;;40.80;;
6376;SDS011;3221;48.858;10.128;2024-01-11T12:56:07;61.73;;;37.93;;
6376;SDS011;3221;48.858;10.128;2024-01-11T12:58:35;60.43;;;37.57;;
6376;SDS011;3221;48.858;10.128;2024-01-11T13:01:05;60.43;;;35.97;;
6376;SDS011;3221;48.858;10.128;2024-01-11T13:03:38;58.10;;;36.20;;
6376;SDS011;3221;48.858;10.128;2024-01-11T13:06:05;63.50;;;36.83;;
6376;SDS011;3221;48.858;10.128;2024-01-11T13:08:33;56.53;;;35.53;;
6376;SDS011;3221;48.858;10.128;2024-01-11T13:11:04;66.10;;;39.17;;
6376;SDS011;3221;48.858;10.128;2024-01-11T13:13:34;58.77;;;36.83;;
6376;SDS011;3221;48.858;10.128;2024-01-11T13:16:01;57.17;;;36.23;;
6376;SDS011;3221;48.858;10.128;2024-01-11T13:18:41;54.97;;;35.97;;
6376;SDS011;3221;48.858;10.128;2024-01-11T13:21:08;57.57;;;34.37;;
6376;SDS011;3221;48.858;10.128;2024-01-11T13:23:36;51.50;;;33.93;;
6376;SDS011;3221;48.858;10.128;2024-01-11T13:26:04;49.77;;;33.93;;
6376;SDS011;3221;48.858;10.128;2024-01-11T13:28:35;55.40;;;34.47;;
6376;SDS011;3221;48.858;10.128;2024-01-11T13:31:02;50.97;;;33.10;;
6376;SDS011;3221;48.858;10.128;2024-01-11T13:33:30;50.43;;;31.80;;
6376;SDS011;3221;48.858;10.128;2024-01-11T13:35:57;52.10;;;33.70;;
6376;SDS011;3221;48.858;10.128;2024-01-11T13:38:24;49.73;;;32.53;;
6376;SDS011;3221;48.858;10.128;2024-01-11T13:40:51;52.10;;;33.70;;
6376;SDS011;3221;48.858;10.128;2024-01-11T13:43:19;51.77;;;33.30;;
6376;SDS011;3221;48.858;10.128;2024-01-11T13:45:45;52.13;;;33.53;;
6376;SDS011;3221;48.858;10.128;2024-01-11T13:48:13;51.33;;;34.27;;
6376;SDS011;3221;48.858;10.128;2024-01-11T13:50:40;52.37;;;33.83;;
6376;SDS011;3221;48.858;10.128;2024-01-11T13:53:07;52.63;;;34.67;;
6376;SDS011;3221;48.858;10.128;2024-01-11T13:55:34;55.23;;;34.90;;
6376;SDS011;3221;48.858;10.128;2024-01-11T13:58:05;55.13;;;34.33;;
6376;SDS011;3221;48.858;10.128;2024-01-11T14:00:33;55.27;;;36.27;;
6376;SDS011;3221;48.858;10.128;2024-01-11T14:03:00;53.27;;;35.33;;
6376;SDS011;3221;48.858;10.128;2024-01-11T14:05:27;57.17;;;35.67;;
6376;SDS011;3221;48.858;10.128;2024-01-11T14:07:54;53.43;;;34.73;;
6376;SDS011;3221;48.858;10.128;2024-01-11T14:10:25;55.00;;;35.27;;
6376;SDS011;3221;48.858;10.128;2024-01-11T14:12:53;53.47;;;33.70;;
6376;SDS011;3221;48.858;10.128;2024-01-11T14:15:20;50.03;;;33.47;;
6376;SDS011;3221;48.858;10.128;2024-01-11T14:17:48;51.03;;;33.20;;
6376;SDS011;3221;48.858;10.128;2024-01-11T14:20:15;48.93;;;33.40;;
6376;SDS011;3221;48.858;10.128;2024-01-11T14:22:44;47.60;;;31.50;;
6376;SDS011;3221;48.858;10.128;2024-01-11T14:25:18;51.47;;;33.30;;
6376;SDS011;3221;48.858;10.128;2024-01-11T14:27:47;48.77;;;32.70;;
6376;SDS011;3221;48.858;10.128;2024-01-11T14:30:14;49.70;;;32.57;;
6376;SDS011;3221;48.858;10.128;2024-01-11T14:32:42;49.40;;;32.70;;
6376;SDS011;3221;48.858;10.128;2024-01-11T14:35:09;50.93;;;32.77;;
6376;SDS011;3221;48.858;10.128;2024-01-11T14:37:37;47.03;;;32.00;;
6376;SDS011;3221;48.858;10.128;2024-01-11T14:40:05;49.80;;;32.33;;
6376;SDS011;3221;48.858;10.128;2024-01-11T14:42:33;46.80;;;31.70;;
6376;SDS011;3221;48.858;10.128;2024-01-11T14:45:00;46.90;;;30.93;;